Time;durP1;ratioP1;P1;durP2;ratioP2;P2;SDS_P1;SDS_P2;PMS_P1;PMS_P2;Temp;Humidity;BMP_temperature;BMP_pressure;BME280_temperature;BME280_humidity;BME280_pressure;Samples;Min_cycle;Max_cycle;Signal;HPM_P1;HPM_P2
2021/03/17 00:00:45;;;;;;;7.97;4.17;;;5.60;1.00;;;;;;4998207;28;20551;-74
2021/03/17 00:03:29;;;;;;;5.80;5.13;;;5.60;1.00;;;;;;4994926;28;20479;-74
2021/03/17 00:06:14;;;;;;;6.80;4.50;;;5.50;7.30;;;;;;4996967;28;21139;-74
2021/03/17 00:08:58;;;;;;;9.43;4.90;;;5.70;24.10;;;;;;4997804;28;20436;-74
2021/03/17 00:11:42;;;;;;;6.57;4.70;;;5.70;8.60;;;;;;5000633;28;21432;-74
2021/03/17 00:14:27;;;;;;;4.77;4.27;;;5.80;1.70;;;;;;4990839;28;20475;-74
2021/03/17 00:17:11;;;;;;;7.57;5.13;;;5.80;1.00;;;;;;4992516;28;20902;-75
2021/03/17 00:19:55;;;;;;;5.20;4.20;;;5.70;1.00;;;;;;4999721;28;20442;-74
2021/03/17 00:22:40;;;;;;;6.53;4.40;;;5.70;1.00;;;;;;4996766;28;20496;-74
2021/03/17 00:25:29;;;;;;;6.47;4.17;;;5.70;1.00;;;;;;5000241;28;20463;-75
2021/03/17 00:28:13;;;;;;;7.60;4.50;;;5.80;1.00;;;;;;4994957;28;21025;-74
2021/03/17 00:30:57;;;;;;;7.53;4.87;;;5.80;1.00;;;;;;4997495;28;21042;-74
2021/03/17 00:33:42;;;;;;;4.93;4.40;;;5.90;1.00;;;;;;4997006;28;20516;-74
2021/03/17 00:36:26;;;;;;;6.27;4.33;;;5.80;1.00;;;;;;4996459;28;21613;-73
2021/03/17 00:39:10;;;;;;;7.27;4.80;;;5.80;1.00;;;;;;4997338;28;21165;-74
2021/03/17 00:41:54;;;;;;;9.80;5.13;;;5.60;8.50;;;;;;4994315;28;22291;-74
2021/03/17 00:44:39;;;;;;;5.37;4.70;;;5.70;1.00;;;;;;4997932;28;20474;-74
2021/03/17 00:47:23;;;;;;;8.97;5.33;;;5.60;1.00;;;;;;4994942;28;20551;-74
2021/03/17 00:49:49;;;;;;;8.50;5.50;;;5.60;23.40;;;;;;4992912;28;20456;-74
2021/03/17 00:52:14;;;;;;;8.00;4.90;;;5.60;33.00;;;;;;4993950;28;21126;-74
2021/03/17 00:54:59;;;;;;;8.90;4.93;;;5.50;32.00;;;;;;4992988;28;21489;-74
2021/03/17 00:57:39;;;;;;;8.20;4.53;;;5.40;63.10;;;;;;5009762;28;20453;-74
2021/03/17 01:00:08;;;;;;;9.77;4.70;;;5.40;60.10;;;;;;5001332;28;20462;-74
2021/03/17 01:02:33;;;;;;;8.23;4.90;;;5.50;51.80;;;;;;4991589;28;20614;-74
2021/03/17 01:04:59;;;;;;;10.57;5.03;;;5.40;49.40;;;;;;4988945;28;20839;-74
2021/03/17 01:07:24;;;;;;;7.47;5.20;;;5.40;32.70;;;;;;5008392;28;20220;-74
2021/03/17 01:09:50;;;;;;;6.30;4.63;;;5.40;55.60;;;;;;5010763;28;20346;-73
2021/03/17 01:12:16;;;;;;;10.03;5.60;;;5.30;52.40;;;;;;4994732;28;20193;-74
2021/03/17 01:14:42;;;;;;;9.00;6.03;;;5.20;97.90;;;;;;4997966;28;20794;-74
2021/03/17 01:17:08;;;;;;;6.73;5.47;;;5.20;99.90;;;;;;4991293;28;20206;-74
2021/03/17 01:19:34;;;;;;;7.80;4.90;;;5.20;99.90;;;;;;4998979;28;20463;-74
2021/03/17 01:22:00;;;;;;;9.87;6.30;;;5.20;99.90;;;;;;4994973;28;20338;-74
2021/03/17 01:24:26;;;;;;;6.63;5.93;;;5.30;99.90;;;;;;4993092;28;20467;-74
2021/03/17 01:26:51;;;;;;;7.50;4.77;;;5.30;99.90;;;;;;4993073;28;20309;-73
2021/03/17 01:29:17;;;;;;;7.47;4.47;;;5.20;99.90;;;;;;4994121;28;20236;-74
2021/03/17 01:31:43;;;;;;;9.83;4.00;;;5.20;99.90;;;;;;4993481;28;20224;-74
2021/03/17 01:34:08;;;;;;;6.23;4.30;;;5.20;99.90;;;;;;4995270;28;20287;-74
2021/03/17 01:36:34;;;;;;;5.97;4.50;;;5.20;91.40;;;;;;4992406;28;20694;-74
2021/03/17 01:39:00;;;;;;;8.90;4.57;;;5.10;64.70;;;;;;4999410;28;20749;-74
2021/03/17 01:41:26;;;;;;;14.47;4.87;;;5.20;94.80;;;;;;4996731;28;20223;-73
2021/03/17 01:43:52;;;;;;;10.03;5.37;;;5.30;52.90;;;;;;4995529;28;20629;-74
2021/03/17 01:46:18;;;;;;;9.90;5.10;;;5.20;51.10;;;;;;4996923;28;20217;-74
2021/03/17 01:48:44;;;;;;;7.03;5.20;;;5.20;78.20;;;;;;5009903;28;20245;-73
2021/03/17 01:51:10;;;;;;;10.40;7.40;;;5.30;39.70;;;;;;4999473;28;20443;-74
2021/03/17 01:53:38;;;;;;;6.90;5.60;;;5.30;47.30;;;;;;4999558;28;20240;-74
2021/03/17 01:56:05;;;;;;;10.37;5.67;;;5.40;43.80;;;;;;4991213;28;20220;-74
2021/03/17 01:58:31;;;;;;;16.17;6.03;;;5.50;20.80;;;;;;4993394;28;20444;-74
2021/03/17 02:00:58;;;;;;;12.27;6.67;;;5.50;21.00;;;;;;4999741;28;20562;-74
2021/03/17 02:03:24;;;;;;;10.73;6.60;;;5.50;7.70;;;;;;4995802;28;21024;-74
2021/03/17 02:05:51;;;;;;;14.30;6.20;;;5.50;3.90;;;;;;5000506;28;20517;-74
2021/03/17 02:08:17;;;;;;;10.07;6.17;;;5.50;1.00;;;;;;4993365;28;20436;-73
2021/03/17 02:10:43;;;;;;;6.83;5.47;;;5.30;7.60;;;;;;4990165;28;20945;-74
2021/03/17 02:13:23;;;;;;;10.10;5.97;;;5.40;20.10;;;;;;4994434;28;21611;-73
2021/03/17 02:15:49;;;;;;;10.67;7.10;;;5.30;24.50;;;;;;4992056;28;20470;-74
2021/03/17 02:18:26;;;;;;;14.73;7.10;;;5.30;42.30;;;;;;4999674;28;20453;-74
2021/03/17 02:21:08;;;;;;;12.30;7.73;;;5.40;14.90;;;;;;4995334;28;20692;-73
2021/03/17 02:24:04;;;;;;;14.20;8.90;;;5.40;12.80;;;;;;4993166;28;20470;-74
2021/03/17 02:27:00;;;;;;;10.10;8.67;;;5.30;8.50;;;;;;5000519;28;20984;-74
2021/03/17 02:29:57;;;;;;;14.60;9.73;;;5.40;14.00;;;;;;4993114;28;20996;-74
2021/03/17 02:32:25;;;;;;;13.33;9.97;;;5.50;2.30;;;;;;4997227;28;21034;-74
2021/03/17 02:34:54;;;;;;;14.17;8.27;;;5.30;1.00;;;;;;4991565;28;20447;-74
2021/03/17 02:37:24;;;;;;;16.37;9.47;;;5.40;31.00;;;;;;4995052;28;20470;-74
2021/03/17 02:39:57;;;;;;;12.40;8.40;;;5.20;21.50;;;;;;4995302;28;20577;-74
2021/03/17 02:42:35;;;;;;;18.30;10.80;;;5.20;42.60;;;;;;4995498;28;20581;-74
2021/03/17 02:45:11;;;;;;;16.20;10.10;;;5.10;63.40;;;;;;4994281;28;20474;-74
2021/03/17 02:47:45;;;;;;;13.20;10.40;;;5.10;99.90;;;;;;4996466;28;20585;-74
2021/03/17 02:50:13;;;;;;;14.73;10.20;;;5.20;99.90;;;;;;5003303;28;20595;-74
2021/03/17 02:52:44;;;;;;;15.63;10.40;;;5.20;63.60;;;;;;4994744;28;20453;-74
2021/03/17 02:55:12;;;;;;;12.80;9.30;;;5.10;55.00;;;;;;4995883;28;22468;-74
2021/03/17 02:57:40;;;;;;;13.33;9.67;;;5.00;99.90;;;;;;5003369;28;20864;-74
2021/03/17 03:00:09;;;;;;;10.80;7.80;;;5.10;99.90;;;;;;4998846;28;20452;-74
2021/03/17 03:02:36;;;;;;;10.43;8.07;;;4.90;99.90;;;;;;4995774;28;20467;-74
2021/03/17 03:05:02;;;;;;;11.37;8.20;;;4.80;99.90;;;;;;4995904;28;20518;-74
2021/03/17 03:07:31;;;;;;;12.10;7.70;;;4.70;99.90;;;;;;4998968;28;20446;-74
2021/03/17 03:09:58;;;;;;;12.00;8.03;;;4.80;99.90;;;;;;4995960;28;22178;-74
2021/03/17 03:12:24;;;;;;;10.57;8.70;;;4.70;99.90;;;;;;4995470;28;21044;-74
2021/03/17 03:14:52;;;;;;;10.33;8.20;;;4.70;99.90;;;;;;5003284;28;20455;-74
2021/03/17 03:17:19;;;;;;;12.77;8.53;;;4.90;99.90;;;;;;4994561;28;20529;-75
2021/03/17 03:19:52;;;;;;;17.97;10.77;;;5.00;99.90;;;;;;4998818;28;20915;-74
2021/03/17 03:22:20;;;;;;;18.70;14.27;;;4.90;99.90;;;;;;4995025;28;21821;-74
2021/03/17 03:24:47;;;;;;;21.50;15.87;;;4.80;99.90;;;;;;4993422;28;20483;-74
2021/03/17 03:27:14;;;;;;;26.27;16.80;;;4.70;99.90;;;;;;4997984;28;20547;-74
2021/03/17 03:29:40;;;;;;;28.60;16.37;;;4.70;99.90;;;;;;4996309;28;20441;-74
2021/03/17 03:32:07;;;;;;;21.33;15.97;;;4.70;99.90;;;;;;4998955;28;20565;-74
2021/03/17 03:34:33;;;;;;;23.13;15.40;;;4.80;99.90;;;;;;5000395;28;21129;-74
2021/03/17 03:36:58;;;;;;;19.13;14.47;;;4.80;99.90;;;;;;4996533;28;21795;-74
2021/03/17 03:39:24;;;;;;;19.10;13.77;;;4.80;99.90;;;;;;4998398;28;20516;-74
2021/03/17 03:41:50;;;;;;;16.37;12.80;;;4.60;99.90;;;;;;4997411;28;20183;-74
2021/03/17 03:44:16;;;;;;;15.30;11.63;;;4.70;99.90;;;;;;4994892;28;20192;-74
2021/03/17 03:46:42;;;;;;;18.47;13.47;;;4.80;99.90;;;;;;5000952;28;20758;-74
2021/03/17 03:49:08;;;;;;;17.17;12.87;;;4.70;99.90;;;;;;4993993;28;20484;-74
2021/03/17 03:51:40;;;;;;;17.10;13.23;;;4.60;99.90;;;;;;4997262;28;20548;-72
2021/03/17 03:54:44;;;;;;;18.00;14.13;;;4.60;99.90;;;;;;5001531;28;20443;-72
2021/03/17 03:57:17;;;;;;;16.70;13.17;;;4.60;99.90;;;;;;4994511;28;20477;-73
2021/03/17 03:59:47;;;;;;;17.03;12.90;;;4.60;99.90;;;;;;4996623;28;20864;-73
2021/03/17 04:02:22;;;;;;;15.60;11.90;;;4.60;99.90;;;;;;4997106;28;20544;-72
2021/03/17 04:04:50;;;;;;;16.93;13.77;;;4.60;99.90;;;;;;4994312;28;21025;-72
2021/03/17 04:07:17;;;;;;;14.33;12.50;;;4.50;99.90;;;;;;4993475;28;20866;-73
2021/03/17 04:09:48;;;;;;;13.50;11.80;;;4.40;99.90;;;;;;4995627;28;20892;-72
2021/03/17 04:12:14;;;;;;;11.03;9.50;;;4.30;99.90;;;;;;4994672;28;20544;-73
2021/03/17 04:14:46;;;;;;;12.10;9.77;;;4.40;99.90;;;;;;4993663;28;20450;-73
2021/03/17 04:17:18;;;;;;;11.30;9.70;;;4.40;99.90;;;;;;4994633;28;20455;-72
2021/03/17 04:19:49;;;;;;;12.43;9.10;;;4.40;99.90;;;;;;4996943;28;20458;-72
2021/03/17 04:22:16;;;;;;;8.53;7.60;;;4.40;99.90;;;;;;4999348;28;20460;-73
2021/03/17 04:24:43;;;;;;;8.00;7.10;;;4.30;99.90;;;;;;4994028;28;20486;-72
2021/03/17 04:27:11;;;;;;;8.10;7.27;;;4.30;99.90;;;;;;4993979;28;20671;-73
2021/03/17 04:29:39;;;;;;;8.43;7.63;;;4.30;99.90;;;;;;4996662;28;20450;-72
2021/03/17 04:32:06;;;;;;;10.50;8.57;;;4.30;99.90;;;;;;4995441;28;20509;-73
2021/03/17 04:34:34;;;;;;;9.13;8.00;;;4.30;99.90;;;;;;4991447;28;20938;-73
2021/03/17 04:37:00;;;;;;;15.27;9.93;;;4.20;99.90;;;;;;4995967;28;21524;-73
2021/03/17 04:39:27;;;;;;;9.20;8.30;;;4.20;99.90;;;;;;4991735;28;20849;-72
2021/03/17 04:41:55;;;;;;;10.03;8.83;;;4.10;99.90;;;;;;4997263;28;20471;-73
2021/03/17 04:44:22;;;;;;;8.23;7.33;;;4.10;99.90;;;;;;4999264;28;20813;-73
2021/03/17 04:46:48;;;;;;;9.07;8.00;;;4.10;1.00;;;;;;5001909;28;20477;-73
2021/03/17 04:49:15;;;;;;;10.40;8.90;;;4.20;1.00;;;;;;4989527;28;20969;-73
2021/03/17 04:51:43;;;;;;;11.47;9.70;;;4.20;1.00;;;;;;4994622;28;20470;-73
2021/03/17 04:54:09;;;;;;;12.20;10.67;;;4.00;99.90;;;;;;4991587;28;20450;-73
2021/03/17 04:56:38;;;;;;;11.57;10.37;;;4.00;1.00;;;;;;4994217;28;20457;-73
2021/03/17 04:59:06;;;;;;;12.07;10.60;;;3.90;1.00;;;;;;5003312;28;21022;-73
2021/03/17 05:01:35;;;;;;;13.00;11.57;;;3.90;55.40;;;;;;5005618;28;20568;-74
2021/03/17 05:04:03;;;;;;;16.77;13.50;;;4.00;1.00;;;;;;5004564;28;20705;-73
2021/03/17 05:06:33;;;;;;;16.17;11.23;;;4.00;99.90;;;;;;4996301;28;20482;-73
2021/03/17 05:08:59;;;;;;;15.00;13.40;;;4.00;99.90;;;;;;5002813;28;20479;-73
2021/03/17 05:11:27;;;;;;;14.07;12.30;;;4.20;1.00;;;;;;5004680;28;20517;-73
2021/03/17 05:13:53;;;;;;;14.80;12.50;;;4.10;1.00;;;;;;5002424;28;20443;-73
2021/03/17 05:16:20;;;;;;;16.00;13.37;;;4.20;1.00;;;;;;5001596;28;20616;-73
2021/03/17 05:18:48;;;;;;;18.73;12.33;;;4.40;1.00;;;;;;5004792;28;20198;-73
2021/03/17 05:21:15;;;;;;;14.30;12.80;;;4.30;99.90;;;;;;5003808;28;20497;-73
2021/03/17 05:23:42;;;;;;;15.67;13.50;;;4.30;99.90;;;;;;5001722;28;20552;-73
2021/03/17 05:26:08;;;;;;;15.70;13.33;;;4.20;99.90;;;;;;5001837;28;20711;-73
2021/03/17 05:28:34;;;;;;;13.30;12.00;;;4.10;99.90;;;;;;5000463;28;20867;-73
2021/03/17 05:31:01;;;;;;;12.93;11.60;;;4.20;99.90;;;;;;5025479;28;20948;-73
2021/03/17 05:33:28;;;;;;;12.63;11.43;;;4.30;99.90;;;;;;5002029;28;20446;-73
2021/03/17 05:35:54;;;;;;;12.33;11.07;;;4.30;99.90;;;;;;5006470;28;20446;-73
2021/03/17 05:38:20;;;;;;;14.83;12.97;;;4.30;99.90;;;;;;5006142;28;20461;-73
2021/03/17 05:40:46;;;;;;;13.17;11.37;;;4.30;99.90;;;;;;5006017;28;20446;-73
2021/03/17 05:43:11;;;;;;;14.47;12.23;;;4.40;99.90;;;;;;4999938;28;20212;-74
2021/03/17 05:45:39;;;;;;;13.13;11.73;;;4.40;99.90;;;;;;5018157;28;20242;-73
2021/03/17 05:48:05;;;;;;;14.77;11.53;;;4.50;99.90;;;;;;4999383;28;20512;-73
2021/03/17 05:50:32;;;;;;;12.63;11.23;;;4.50;99.90;;;;;;5005807;28;20462;-73
2021/03/17 05:52:58;;;;;;;18.83;11.77;;;4.40;99.90;;;;;;4996945;28;20451;-74
2021/03/17 05:55:23;;;;;;;14.50;12.47;;;4.40;99.90;;;;;;5009546;28;20515;-73
2021/03/17 05:57:49;;;;;;;15.70;12.90;;;4.30;99.90;;;;;;5005034;28;20188;-74
2021/03/17 06:00:21;;;;;;;16.23;12.87;;;4.30;99.90;;;;;;5003756;28;20202;-73
2021/03/17 06:02:48;;;;;;;13.97;12.40;;;4.40;99.90;;;;;;5003980;28;20640;-73
2021/03/17 06:05:15;;;;;;;10.93;9.70;;;4.30;99.90;;;;;;5000981;28;20754;-73
2021/03/17 06:07:43;;;;;;;11.40;10.27;;;4.30;99.90;;;;;;5000895;28;20450;-73
2021/03/17 06:10:10;;;;;;;13.40;10.70;;;4.30;99.90;;;;;;4999605;28;20881;-73
2021/03/17 06:12:37;;;;;;;13.50;11.07;;;4.30;99.90;;;;;;5005052;28;21052;-73
2021/03/17 06:15:06;;;;;;;13.87;11.40;;;4.50;99.90;;;;;;5003796;28;20473;-73
2021/03/17 06:17:35;;;;;;;12.80;11.17;;;4.40;99.90;;;;;;5000929;28;21220;-73
2021/03/17 06:20:05;;;;;;;13.23;10.60;;;4.50;99.90;;;;;;5002509;28;20963;-73
2021/03/17 06:22:31;;;;;;;10.80;9.57;;;4.60;99.90;;;;;;5002519;28;20529;-73
2021/03/17 06:24:57;;;;;;;10.80;9.10;;;4.60;99.90;;;;;;5004556;28;20474;-73
2021/03/17 06:27:24;;;;;;;13.03;8.80;;;4.60;99.90;;;;;;5007962;28;20440;-74
2021/03/17 06:29:50;;;;;;;5.20;4.57;;;4.60;99.90;;;;;;5004823;28;20477;-74
2021/03/17 06:32:16;;;;;;;2.40;2.17;;;4.30;43.20;;;;;;5006967;28;20461;-75
2021/03/17 06:34:46;;;;;;;2.17;1.70;;;3.90;1.00;;;;;;5004244;28;20253;-75
2021/03/17 06:37:13;;;;;;;3.30;1.80;;;3.70;1.00;;;;;;5006373;28;20460;-73
2021/03/17 06:39:38;;;;;;;2.03;1.83;;;3.70;1.00;;;;;;5006266;28;20442;-73
2021/03/17 06:42:05;;;;;;;3.70;2.00;;;3.70;7.00;;;;;;5004164;28;20563;-73
2021/03/17 06:44:31;;;;;;;6.30;2.30;;;3.60;5.90;;;;;;5004836;28;20441;-73
2021/03/17 06:47:10;;;;;;;2.60;2.17;;;3.60;5.20;;;;;;5007044;28;20883;-75
2021/03/17 06:49:43;;;;;;;2.53;2.33;;;3.50;8.50;;;;;;5007575;28;20883;-73
2021/03/17 06:52:32;;;;;;;2.37;2.10;;;3.50;18.10;;;;;;5007864;28;20451;-75
2021/03/17 06:55:15;;;;;;;4.93;2.53;;;3.60;30.50;;;;;;5008159;28;20552;-72
2021/03/17 06:57:52;;;;;;;4.30;2.50;;;3.60;27.90;;;;;;5011954;28;20524;-75
2021/03/17 07:00:32;;;;;;;2.90;2.23;;;3.70;25.30;;;;;;4999498;28;20472;-74
2021/03/17 07:03:06;;;;;;;2.90;2.60;;;3.80;19.80;;;;;;4995368;28;20460;-75
2021/03/17 07:05:50;;;;;;;7.97;2.93;;;3.80;13.10;;;;;;4995232;28;21000;-72
2021/03/17 07:08:28;;;;;;;4.50;3.00;;;3.90;10.00;;;;;;4992440;28;20562;-72
2021/03/17 07:10:58;;;;;;;4.93;2.90;;;4.10;7.90;;;;;;4994351;28;20725;-74
2021/03/17 07:13:26;;;;;;;6.40;2.43;;;4.20;1.00;;;;;;5002521;28;20445;-72
2021/03/17 07:15:54;;;;;;;4.57;2.63;;;4.20;1.00;;;;;;4990922;28;21331;-71
2021/03/17 07:18:25;;;;;;;4.60;2.70;;;4.20;1.00;;;;;;4994290;28;22124;-72
2021/03/17 07:20:58;;;;;;;5.03;2.50;;;4.30;1.00;;;;;;4998745;28;20525;-72
2021/03/17 07:23:34;;;;;;;3.00;2.40;;;4.20;1.00;;;;;;4997330;28;21218;-76
2021/03/17 07:26:10;;;;;;;4.07;2.30;;;4.50;1.00;;;;;;4995883;28;20480;-73
2021/03/17 07:29:12;;;;;;;2.87;1.87;;;4.60;1.00;;;;;;5000737;28;20446;-71
2021/03/17 07:31:47;;;;;;;3.93;2.63;;;4.60;1.00;;;;;;5006955;28;20465;-72
2021/03/17 07:34:23;;;;;;;3.63;3.03;;;4.60;1.00;;;;;;4993480;28;20440;-72
2021/03/17 07:36:59;;;;;;;3.30;2.43;;;4.60;1.00;;;;;;4997095;28;20457;-72
2021/03/17 07:39:32;;;;;;;6.60;2.43;;;4.60;1.00;;;;;;4993592;28;20913;-72
2021/03/17 07:42:01;;;;;;;3.20;2.30;;;4.70;1.00;;;;;;4992631;28;20438;-72
2021/03/17 07:44:28;;;;;;;5.50;2.30;;;4.70;1.00;;;;;;4998234;28;20834;-72
2021/03/17 07:47:01;;;;;;;4.53;2.10;;;4.90;1.00;;;;;;4991818;28;20485;-72
2021/03/17 07:49:28;;;;;;;3.40;1.80;;;5.10;1.00;;;;;;4997728;28;20430;-72
2021/03/17 07:51:57;;;;;;;5.50;1.80;;;5.00;1.00;;;;;;4986358;28;20475;-72
2021/03/17 07:54:28;;;;;;;8.30;2.20;;;4.90;1.00;;;;;;4989929;28;20554;-72
2021/03/17 07:56:59;;;;;;;4.50;1.90;;;4.90;1.00;;;;;;4991581;28;20494;-74
2021/03/17 07:59:26;;;;;;;3.77;2.40;;;4.80;1.00;;;;;;4996407;28;20732;-74
2021/03/17 08:01:56;;;;;;;14.10;2.67;;;4.70;1.00;;;;;;4995719;28;20481;-74
2021/03/17 08:04:26;;;;;;;13.43;2.77;;;4.70;1.00;;;;;;4996601;28;20481;-74
2021/03/17 08:06:59;;;;;;;3.87;2.37;;;4.70;1.00;;;;;;4994537;28;20470;-74
2021/03/17 08:09:25;;;;;;;3.20;1.93;;;4.80;1.00;;;;;;4991417;28;20484;-75
2021/03/17 08:11:52;;;;;;;8.70;2.40;;;4.90;1.00;;;;;;4989585;28;20847;-75
2021/03/17 08:14:20;;;;;;;5.00;2.00;;;5.00;1.00;;;;;;4998101;28;20241;-74
2021/03/17 08:16:46;;;;;;;3.93;2.30;;;5.10;1.00;;;;;;4996997;28;20474;-74
2021/03/17 08:19:29;;;;;;;4.17;2.40;;;5.10;1.00;;;;;;4994479;28;20514;-74
2021/03/17 08:21:58;;;;;;;2.90;2.50;;;5.10;1.00;;;;;;4994680;28;20876;-74
2021/03/17 08:24:35;;;;;;;8.77;2.80;;;5.20;1.00;;;;;;4995666;28;20845;-75
2021/03/17 08:27:22;;;;;;;5.67;2.87;;;5.10;1.00;;;;;;4992676;28;20458;-74
2021/03/17 08:29:51;;;;;;;9.50;2.30;;;5.10;1.00;;;;;;4996472;28;20510;-73
2021/03/17 08:32:19;;;;;;;6.60;2.93;;;5.00;1.00;;;;;;5000281;28;20458;-74
2021/03/17 08:34:57;;;;;;;3.47;2.40;;;4.80;1.00;;;;;;5008199;28;20449;-73
2021/03/17 08:37:54;;;;;;;4.50;2.03;;;4.70;1.00;;;;;;4997335;28;20540;-73
2021/03/17 08:40:29;;;;;;;4.93;1.70;;;4.40;1.00;;;;;;4997122;28;20777;-73
2021/03/17 08:43:18;;;;;;;3.60;2.40;;;4.30;1.00;;;;;;4992864;28;20461;-73
2021/03/17 08:45:44;;;;;;;4.30;1.43;;;4.40;1.00;;;;;;4993736;28;20473;-73
2021/03/17 08:48:09;;;;;;;6.40;1.90;;;4.40;1.00;;;;;;4994267;28;20473;-73
2021/03/17 08:50:47;;;;;;;5.43;2.43;;;4.70;1.00;;;;;;4992474;28;20184;-73
2021/03/17 08:53:38;;;;;;;4.57;2.20;;;4.80;1.00;;;;;;4992234;28;20215;-72
2021/03/17 08:56:04;;;;;;;5.70;2.57;;;4.80;1.00;;;;;;4993641;28;20832;-72
2021/03/17 08:58:30;;;;;;;7.87;2.60;;;4.80;1.00;;;;;;4997405;28;20783;-72
2021/03/17 09:01:00;;;;;;;5.23;2.10;;;4.90;1.00;;;;;;4993726;28;20184;-74
2021/03/17 09:03:32;;;;;;;4.37;3.00;;;4.80;1.00;;;;;;4991358;28;20204;-72
2021/03/17 09:06:07;;;;;;;4.40;2.03;;;4.90;1.00;;;;;;4992317;28;20908;-73
2021/03/17 09:08:54;;;;;;;7.20;3.80;;;4.70;1.00;;;;;;4994047;28;20449;-72
2021/03/17 09:11:28;;;;;;;6.73;3.90;;;4.70;1.00;;;;;;5004681;28;20849;-73
2021/03/17 09:13:55;;;;;;;6.60;2.47;;;4.50;1.00;;;;;;5013019;28;21010;-73
2021/03/17 09:16:21;;;;;;;5.80;2.80;;;4.20;1.00;;;;;;5010352;28;20705;-72
2021/03/17 09:19:07;;;;;;;2.53;2.30;;;4.40;1.00;;;;;;5014737;28;21012;-73
2021/03/17 09:21:34;;;;;;;7.17;2.87;;;4.60;1.00;;;;;;4988320;28;20529;-75
2021/03/17 09:24:01;;;;;;;3.70;3.17;;;4.60;1.00;;;;;;4994366;28;20457;-73
2021/03/17 09:26:30;;;;;;;9.37;3.20;;;4.60;1.00;;;;;;4995798;28;20501;-72
2021/03/17 09:29:06;;;;;;;7.13;3.47;;;4.70;1.00;;;;;;4996236;28;20833;-73
2021/03/17 09:31:34;;;;;;;6.13;3.00;;;4.70;1.00;;;;;;4996870;28;21550;-73
2021/03/17 09:34:00;;;;;;;9.70;3.63;;;4.70;1.00;;;;;;4996820;28;20538;-73
2021/03/17 09:36:28;;;;;;;9.53;3.87;;;4.70;1.00;;;;;;4998489;28;20835;-73
2021/03/17 09:38:56;;;;;;;9.20;2.70;;;4.70;1.00;;;;;;4995223;28;21022;-73
2021/03/17 09:41:27;;;;;;;6.80;2.67;;;5.00;1.00;;;;;;4996607;28;20465;-73
2021/03/17 09:43:58;;;;;;;4.50;2.27;;;5.10;1.00;;;;;;4997066;28;20475;-73
2021/03/17 09:46:40;;;;;;;6.30;3.07;;;5.20;1.00;;;;;;4999240;28;20520;-73
2021/03/17 09:49:15;;;;;;;5.67;3.40;;;5.40;1.00;;;;;;4999741;28;20503;-73
2021/03/17 09:51:52;;;;;;;17.97;7.37;;;5.50;1.00;;;;;;4997437;28;21317;-74
2021/03/17 09:54:24;;;;;;;14.97;5.90;;;5.40;1.00;;;;;;4993601;28;20445;-73
2021/03/17 09:56:50;;;;;;;8.87;3.20;;;5.40;1.00;;;;;;4994090;28;20559;-73
2021/03/17 09:59:33;;;;;;;11.87;3.93;;;5.30;1.00;;;;;;5002418;28;20446;-72
2021/03/17 10:02:04;;;;;;;5.50;2.97;;;5.30;1.00;;;;;;5006030;28;20831;-73
2021/03/17 10:04:51;;;;;;;5.00;2.73;;;5.40;1.00;;;;;;5018921;28;20443;-72
2021/03/17 10:07:23;;;;;;;5.97;2.90;;;5.20;1.00;;;;;;4999915;28;20494;-75
2021/03/17 10:09:50;;;;;;;6.97;3.80;;;5.20;1.00;;;;;;5000593;28;20520;-72
2021/03/17 10:12:22;;;;;;;7.20;2.80;;;5.10;1.00;;;;;;5000691;28;20442;-72
2021/03/17 10:14:58;;;;;;;4.33;3.30;;;5.20;1.00;;;;;;5003166;28;20442;-74
2021/03/17 10:17:26;;;;;;;8.70;2.60;;;5.20;1.00;;;;;;5001172;28;20462;-75
2021/03/17 10:19:57;;;;;;;6.83;2.80;;;5.30;1.00;;;;;;5003250;28;20446;-75
2021/03/17 10:22:26;;;;;;;6.17;2.67;;;5.30;1.00;;;;;;5002890;28;20446;-74
2021/03/17 10:24:55;;;;;;;4.20;2.17;;;5.40;1.00;;;;;;4996004;28;20550;-72
2021/03/17 10:27:40;;;;;;;7.33;2.30;;;5.50;1.00;;;;;;4999824;28;21092;-75
2021/03/17 10:30:12;;;;;;;2.60;1.30;;;5.40;1.00;;;;;;5003338;28;20850;-75
2021/03/17 10:32:40;;;;;;;7.27;2.37;;;5.30;1.00;;;;;;4996317;28;20473;-73
2021/03/17 10:35:09;;;;;;;5.13;2.00;;;5.40;1.00;;;;;;5004154;28;20447;-73
2021/03/17 10:37:35;;;;;;;9.00;2.37;;;5.40;1.00;;;;;;4999530;28;20560;-73
2021/03/17 10:40:20;;;;;;;2.33;1.73;;;5.50;1.00;;;;;;4998826;28;20455;-73
2021/03/17 10:42:57;;;;;;;5.33;2.10;;;5.40;1.00;;;;;;5000063;28;20560;-73
2021/03/17 10:45:30;;;;;;;10.00;1.70;;;5.40;1.00;;;;;;4995900;28;20458;-73
2021/03/17 10:47:56;;;;;;;5.07;1.83;;;5.40;1.00;;;;;;4998728;28;20462;-73
2021/03/17 10:50:33;;;;;;;4.43;2.40;;;5.50;1.00;;;;;;4998522;28;20448;-73
2021/03/17 10:52:59;;;;;;;3.60;1.73;;;5.70;1.00;;;;;;4996071;28;20557;-72
2021/03/17 10:55:27;;;;;;;3.03;1.60;;;6.10;1.00;;;;;;4997719;28;20581;-73
2021/03/17 10:58:14;;;;;;;3.47;1.63;;;6.20;1.00;;;;;;5000685;28;20443;-73
2021/03/17 11:00:41;;;;;;;5.33;1.77;;;6.20;1.00;;;;;;5001028;28;21193;-73
2021/03/17 11:03:27;;;;;;;2.03;1.33;;;6.10;1.00;;;;;;5002303;28;22394;-73
2021/03/17 11:06:20;;;;;;;6.10;1.20;;;6.00;1.00;;;;;;5000351;28;20479;-74
2021/03/17 11:09:07;;;;;;;6.77;1.50;;;5.80;1.00;;;;;;4995290;28;20551;-75
2021/03/17 11:11:47;;;;;;;6.07;1.50;;;5.70;1.00;;;;;;4997109;28;20854;-75
2021/03/17 11:14:32;;;;;;;2.07;1.53;;;5.60;1.00;;;;;;4988805;28;20510;-74
2021/03/17 11:17:05;;;;;;;3.90;1.47;;;5.70;1.00;;;;;;4997992;28;20453;-74
2021/03/17 11:19:31;;;;;;;3.20;1.27;;;5.90;1.00;;;;;;4999039;28;20441;-74
2021/03/17 11:21:56;;;;;;;4.20;1.20;;;5.90;1.00;;;;;;4996113;28;20451;-74
2021/03/17 11:24:22;;;;;;;2.80;1.10;;;5.80;1.00;;;;;;4994642;28;20215;-74
2021/03/17 11:26:49;;;;;;;4.70;1.47;;;5.70;1.00;;;;;;4994736;28;20239;-74
2021/03/17 11:29:28;;;;;;;12.63;1.50;;;5.50;1.00;;;;;;5000473;28;20634;-74
2021/03/17 11:32:04;;;;;;;4.27;2.10;;;5.50;1.00;;;;;;5001386;28;20805;-74
2021/03/17 11:34:29;;;;;;;7.30;1.63;;;5.40;1.00;;;;;;4995124;28;20531;-74
2021/03/17 11:36:55;;;;;;;7.93;2.40;;;5.50;1.00;;;;;;5007542;28;20607;-75
2021/03/17 11:39:21;;;;;;;7.47;1.63;;;5.40;1.00;;;;;;4999874;28;20183;-75
2021/03/17 11:41:49;;;;;;;3.67;1.67;;;5.50;1.00;;;;;;4989412;28;20188;-74
2021/03/17 11:44:17;;;;;;;14.87;2.20;;;5.50;1.00;;;;;;4993892;28;20206;-75
2021/03/17 11:46:43;;;;;;;4.07;1.77;;;5.50;1.00;;;;;;4996549;28;21133;-74
2021/03/17 11:49:10;;;;;;;3.77;2.27;;;5.60;1.00;;;;;;5000779;28;20465;-75
2021/03/17 11:51:35;;;;;;;6.20;1.87;;;5.70;1.00;;;;;;5000998;28;20444;-72
2021/03/17 11:54:01;;;;;;;8.03;1.60;;;5.70;1.00;;;;;;4994196;28;20975;-74
2021/03/17 11:56:27;;;;;;;5.83;1.80;;;5.80;1.00;;;;;;4994954;28;20201;-75
2021/03/17 11:58:52;;;;;;;4.37;1.50;;;5.70;1.00;;;;;;4991091;28;20279;-75
2021/03/17 12:01:18;;;;;;;9.70;1.53;;;5.70;1.00;;;;;;4996519;28;20230;-74
2021/03/17 12:03:44;;;;;;;7.23;1.70;;;5.80;1.00;;;;;;5002140;28;20347;-74
2021/03/17 12:06:10;;;;;;;5.13;1.90;;;6.00;1.00;;;;;;4996566;28;20492;-74
2021/03/17 12:08:37;;;;;;;4.87;1.60;;;6.00;1.00;;;;;;4999969;28;20522;-75
2021/03/17 12:11:03;;;;;;;5.30;1.80;;;6.10;1.00;;;;;;4995934;28;20512;-74
2021/03/17 12:13:29;;;;;;;7.27;1.90;;;6.10;1.00;;;;;;4996760;28;20450;-74
2021/03/17 12:15:55;;;;;;;4.90;1.90;;;6.20;1.00;;;;;;4988173;28;21486;-72
2021/03/17 12:18:21;;;;;;;6.70;1.70;;;6.20;1.00;;;;;;4995439;28;20280;-72
2021/03/17 12:20:47;;;;;;;3.10;1.70;;;6.10;1.00;;;;;;4992448;28;21085;-72
2021/03/17 12:23:14;;;;;;;5.67;1.80;;;6.10;1.00;;;;;;4994110;28;20459;-72
2021/03/17 12:25:40;;;;;;;3.83;1.50;;;6.00;1.00;;;;;;4994096;28;20483;-72
2021/03/17 12:28:06;;;;;;;6.20;1.77;;;6.00;1.00;;;;;;4995670;28;20470;-72
2021/03/17 12:30:32;;;;;;;6.67;2.17;;;6.00;1.00;;;;;;5009337;28;20187;-72
2021/03/17 12:32:58;;;;;;;2.80;1.60;;;6.10;1.00;;;;;;5009260;28;20562;-72
2021/03/17 12:35:25;;;;;;;3.37;1.57;;;6.20;1.00;;;;;;5005317;28;20573;-72
2021/03/17 12:37:53;;;;;;;10.70;1.80;;;6.20;1.00;;;;;;5009879;28;20247;-72
2021/03/17 12:40:21;;;;;;;5.63;1.60;;;6.20;1.00;;;;;;5010159;28;20450;-72
2021/03/17 12:42:48;;;;;;;7.17;1.87;;;6.30;1.00;;;;;;5009451;28;20467;-73
2021/03/17 12:45:16;;;;;;;5.97;1.60;;;6.40;1.00;;;;;;5000352;28;20478;-72
2021/03/17 12:47:42;;;;;;;2.50;1.30;;;6.50;1.00;;;;;;5009981;28;20500;-72
2021/03/17 12:50:10;;;;;;;4.73;1.50;;;6.30;1.00;;;;;;5017783;28;20475;-72
2021/03/17 12:52:36;;;;;;;2.60;1.67;;;6.30;1.00;;;;;;5005263;28;20450;-72
2021/03/17 12:55:04;;;;;;;4.13;1.50;;;6.40;1.00;;;;;;5001300;28;20451;-71
2021/03/17 12:57:30;;;;;;;2.43;1.40;;;6.20;1.00;;;;;;5005808;28;20186;-72
2021/03/17 12:59:57;;;;;;;6.10;1.43;;;6.10;1.00;;;;;;5004943;28;20841;-72
2021/03/17 13:02:24;;;;;;;3.50;1.70;;;6.10;1.00;;;;;;5010509;28;21104;-74
2021/03/17 13:04:50;;;;;;;5.20;1.60;;;6.10;1.00;;;;;;5002677;28;20537;-72
2021/03/17 13:07:17;;;;;;;3.77;1.40;;;6.00;1.00;;;;;;5009084;28;20471;-72
2021/03/17 13:09:44;;;;;;;7.30;2.33;;;6.10;1.00;;;;;;5004320;28;20442;-72
2021/03/17 13:12:10;;;;;;;2.37;1.70;;;6.00;1.00;;;;;;5008929;28;21044;-72
2021/03/17 13:14:36;;;;;;;3.27;1.67;;;6.00;1.00;;;;;;4992014;28;20589;-72
2021/03/17 13:17:01;;;;;;;3.40;1.20;;;6.10;1.00;;;;;;4991895;28;20447;-72